sensor_id;sensor_type;location;lat;lon;timestamp;P1;durP1;ratioP1;P2;durP2;ratioP2
68310;SDS011;55157;51.036;17.058;2023-05-19T00:02:01;15.52;;;7.82;;
68310;SDS011;55157;51.036;17.058;2023-05-19T00:04:26;13.93;;;6.75;;
68310;SDS011;55157;51.036;17.058;2023-05-19T00:06:53;18.10;;;8.35;;
68310;SDS011;55157;51.036;17.058;2023-05-19T00:09:19;13.15;;;6.65;;
68310;SDS011;55157;51.036;17.058;2023-05-19T00:11:44;15.90;;;6.10;;
68310;SDS011;55157;51.036;17.058;2023-05-19T00:14:10;11.95;;;5.95;;
68310;SDS011;55157;51.036;17.058;2023-05-19T00:16:35;12.85;;;5.40;;
68310;SDS011;55157;51.036;17.058;2023-05-19T00:19:01;9.15;;;5.03;;
68310;SDS011;55157;51.036;17.058;2023-05-19T00:21:27;12.30;;;5.43;;
68310;SDS011;55157;51.036;17.058;2023-05-19T00:23:54;9.02;;;4.70;;
68310;SDS011;55157;51.036;17.058;2023-05-19T00:26:19;12.63;;;6.15;;
68310;SDS011;55157;51.036;17.058;2023-05-19T00:28:44;10.93;;;5.78;;
68310;SDS011;55157;51.036;17.058;2023-05-19T00:31:10;17.10;;;5.75;;
68310;SDS011;55157;51.036;17.058;2023-05-19T00:33:35;13.20;;;5.60;;
68310;SDS011;55157;51.036;17.058;2023-05-19T00:36:00;11.55;;;5.82;;
68310;SDS011;55157;51.036;17.058;2023-05-19T00:38:25;10.73;;;4.75;;
68310;SDS011;55157;51.036;17.058;2023-05-19T00:40:52;12.55;;;5.60;;
68310;SDS011;55157;51.036;17.058;2023-05-19T00:43:17;12.60;;;5.95;;
68310;SDS011;55157;51.036;17.058;2023-05-19T00:45:43;14.10;;;5.90;;
68310;SDS011;55157;51.036;17.058;2023-05-19T00:48:08;11.95;;;5.65;;
68310;SDS011;55157;51.036;17.058;2023-05-19T00:50:33;14.35;;;5.60;;
68310;SDS011;55157;51.036;17.058;2023-05-19T00:52:58;10.35;;;6.43;;
68310;SDS011;55157;51.036;17.058;2023-05-19T00:55:25;12.23;;;5.57;;
68310;SDS011;55157;51.036;17.058;2023-05-19T00:57:53;12.88;;;6.28;;
68310;SDS011;55157;51.036;17.058;2023-05-19T01:00:19;14.25;;;5.15;;
68310;SDS011;55157;51.036;17.058;2023-05-19T01:02:45;14.63;;;6.20;;
68310;SDS011;55157;51.036;17.058;2023-05-19T01:05:10;11.10;;;5.50;;
68310;SDS011;55157;51.036;17.058;2023-05-19T01:07:36;11.38;;;5.55;;
68310;SDS011;55157;51.036;17.058;2023-05-19T01:10:01;15.48;;;5.35;;
68310;SDS011;55157;51.036;17.058;2023-05-19T01:12:27;18.33;;;6.43;;
68310;SDS011;55157;51.036;17.058;2023-05-19T01:14:54;11.45;;;6.47;;
68310;SDS011;55157;51.036;17.058;2023-05-19T01:17:20;12.43;;;6.07;;
68310;SDS011;55157;51.036;17.058;2023-05-19T01:19:49;17.88;;;6.35;;
68310;SDS011;55157;51.036;17.058;2023-05-19T01:22:23;11.95;;;6.10;;
68310;SDS011;55157;51.036;17.058;2023-05-19T01:28:02;14.55;;;6.45;;
68310;SDS011;55157;51.036;17.058;2023-05-19T01:30:33;11.75;;;5.38;;
68310;SDS011;55157;51.036;17.058;2023-05-19T01:33:01;12.25;;;5.53;;
68310;SDS011;55157;51.036;17.058;2023-05-19T01:35:27;10.40;;;5.80;;
68310;SDS011;55157;51.036;17.058;2023-05-19T01:37:53;12.18;;;6.50;;
68310;SDS011;55157;51.036;17.058;2023-05-19T01:40:19;16.02;;;5.80;;
68310;SDS011;55157;51.036;17.058;2023-05-19T01:42:44;15.32;;;5.80;;
68310;SDS011;55157;51.036;17.058;2023-05-19T01:45:10;13.07;;;5.45;;
68310;SDS011;55157;51.036;17.058;2023-05-19T01:47:39;9.40;;;5.15;;
68310;SDS011;55157;51.036;17.058;2023-05-19T01:50:05;11.25;;;5.88;;
68310;SDS011;55157;51.036;17.058;2023-05-19T01:52:30;10.52;;;5.30;;
68310;SDS011;55157;51.036;17.058;2023-05-19T01:54:56;9.88;;;4.47;;
68310;SDS011;55157;51.036;17.058;2023-05-19T01:57:23;7.65;;;4.82;;
68310;SDS011;55157;51.036;17.058;2023-05-19T01:59:51;13.35;;;6.13;;
68310;SDS011;55157;51.036;17.058;2023-05-19T02:02:20;13.68;;;4.68;;
68310;SDS011;55157;51.036;17.058;2023-05-19T02:04:53;8.68;;;5.38;;
68310;SDS011;55157;51.036;17.058;2023-05-19T02:07:20;11.98;;;4.63;;
68310;SDS011;55157;51.036;17.058;2023-05-19T02:09:51;12.10;;;4.88;;
68310;SDS011;55157;51.036;17.058;2023-05-19T02:12:18;9.85;;;5.15;;
68310;SDS011;55157;51.036;17.058;2023-05-19T02:14:44;17.20;;;5.43;;
68310;SDS011;55157;51.036;17.058;2023-05-19T02:17:13;13.80;;;5.85;;
68310;SDS011;55157;51.036;17.058;2023-05-19T02:19:40;9.23;;;5.30;;
68310;SDS011;55157;51.036;17.058;2023-05-19T02:22:08;11.70;;;4.97;;
68310;SDS011;55157;51.036;17.058;2023-05-19T02:24:33;8.18;;;4.55;;
68310;SDS011;55157;51.036;17.058;2023-05-19T02:26:58;8.32;;;4.38;;
68310;SDS011;55157;51.036;17.058;2023-05-19T02:29:24;12.25;;;4.65;;
68310;SDS011;55157;51.036;17.058;2023-05-19T02:31:49;10.80;;;5.55;;
68310;SDS011;55157;51.036;17.058;2023-05-19T02:34:14;10.27;;;5.05;;
68310;SDS011;55157;51.036;17.058;2023-05-19T02:36:40;10.18;;;4.45;;
68310;SDS011;55157;51.036;17.058;2023-05-19T02:39:07;11.38;;;5.22;;
68310;SDS011;55157;51.036;17.058;2023-05-19T02:41:32;10.90;;;5.28;;
68310;SDS011;55157;51.036;17.058;2023-05-19T02:43:57;11.63;;;4.95;;
68310;SDS011;55157;51.036;17.058;2023-05-19T02:46:23;11.32;;;5.38;;
68310;SDS011;55157;51.036;17.058;2023-05-19T02:48:48;11.77;;;5.00;;
68310;SDS011;55157;51.036;17.058;2023-05-19T02:51:13;11.52;;;5.20;;
68310;SDS011;55157;51.036;17.058;2023-05-19T02:53:38;12.38;;;5.15;;
68310;SDS011;55157;51.036;17.058;2023-05-19T02:56:05;12.13;;;5.82;;
68310;SDS011;55157;51.036;17.058;2023-05-19T02:58:30;11.73;;;5.82;;
68310;SDS011;55157;51.036;17.058;2023-05-19T03:00:56;9.23;;;4.70;;
68310;SDS011;55157;51.036;17.058;2023-05-19T03:03:21;9.65;;;4.80;;
68310;SDS011;55157;51.036;17.058;2023-05-19T03:05:46;11.40;;;5.47;;
68310;SDS011;55157;51.036;17.058;2023-05-19T03:08:11;18.08;;;6.95;;
68310;SDS011;55157;51.036;17.058;2023-05-19T03:10:37;11.77;;;4.85;;
68310;SDS011;55157;51.036;17.058;2023-05-19T03:13:03;8.45;;;4.72;;
68310;SDS011;55157;51.036;17.058;2023-05-19T03:15:29;10.02;;;5.35;;
68310;SDS011;55157;51.036;17.058;2023-05-19T03:17:54;9.30;;;5.18;;
68310;SDS011;55157;51.036;17.058;2023-05-19T03:20:19;9.20;;;5.10;;
68310;SDS011;55157;51.036;17.058;2023-05-19T03:22:45;8.48;;;4.88;;
68310;SDS011;55157;51.036;17.058;2023-05-19T03:25:10;12.85;;;4.97;;
68310;SDS011;55157;51.036;17.058;2023-05-19T03:27:35;8.48;;;4.90;;
68310;SDS011;55157;51.036;17.058;2023-05-19T03:30:02;12.38;;;4.80;;
68310;SDS011;55157;51.036;17.058;2023-05-19T03:32:27;8.80;;;5.03;;
68310;SDS011;55157;51.036;17.058;2023-05-19T03:34:52;11.60;;;4.80;;
68310;SDS011;55157;51.036;17.058;2023-05-19T03:37:18;9.63;;;5.20;;
68310;SDS011;55157;51.036;17.058;2023-05-19T03:39:43;15.07;;;6.28;;
68310;SDS011;55157;51.036;17.058;2023-05-19T03:42:08;15.02;;;6.63;;
68310;SDS011;55157;51.036;17.058;2023-05-19T03:44:33;14.82;;;6.30;;
68310;SDS011;55157;51.036;17.058;2023-05-19T03:47:00;10.57;;;5.45;;
68310;SDS011;55157;51.036;17.058;2023-05-19T03:49:25;12.07;;;6.18;;
68310;SDS011;55157;51.036;17.058;2023-05-19T03:51:50;15.32;;;6.15;;
68310;SDS011;55157;51.036;17.058;2023-05-19T03:54:16;12.48;;;5.68;;
68310;SDS011;55157;51.036;17.058;2023-05-19T03:56:41;12.27;;;6.05;;
68310;SDS011;55157;51.036;17.058;2023-05-19T03:59:07;12.68;;;6.15;;
68310;SDS011;55157;51.036;17.058;2023-05-19T04:01:32;11.23;;;5.18;;
68310;SDS011;55157;51.036;17.058;2023-05-19T04:03:59;8.80;;;5.32;;
68310;SDS011;55157;51.036;17.058;2023-05-19T04:06:24;8.02;;;5.60;;
68310;SDS011;55157;51.036;17.058;2023-05-19T04:08:49;9.48;;;5.75;;
68310;SDS011;55157;51.036;17.058;2023-05-19T04:11:15;10.18;;;4.90;;
68310;SDS011;55157;51.036;17.058;2023-05-19T04:13:40;12.30;;;5.70;;
68310;SDS011;55157;51.036;17.058;2023-05-19T04:16:06;10.77;;;5.32;;
68310;SDS011;55157;51.036;17.058;2023-05-19T04:18:31;17.23;;;6.22;;
68310;SDS011;55157;51.036;17.058;2023-05-19T04:20:58;17.17;;;6.45;;
68310;SDS011;55157;51.036;17.058;2023-05-19T04:23:23;15.82;;;5.57;;
68310;SDS011;55157;51.036;17.058;2023-05-19T04:25:48;8.40;;;5.40;;
68310;SDS011;55157;51.036;17.058;2023-05-19T04:28:14;12.10;;;5.28;;
68310;SDS011;55157;51.036;17.058;2023-05-19T04:30:39;12.73;;;5.95;;
68310;SDS011;55157;51.036;17.058;2023-05-19T04:33:04;9.88;;;6.07;;
68310;SDS011;55157;51.036;17.058;2023-05-19T04:35:30;9.85;;;5.65;;
68310;SDS011;55157;51.036;17.058;2023-05-19T04:37:56;14.05;;;6.00;;
68310;SDS011;55157;51.036;17.058;2023-05-19T04:40:22;17.25;;;6.30;;
68310;SDS011;55157;51.036;17.058;2023-05-19T04:42:47;12.85;;;6.05;;
68310;SDS011;55157;51.036;17.058;2023-05-19T04:45:12;15.40;;;5.50;;
68310;SDS011;55157;51.036;17.058;2023-05-19T04:47:37;12.65;;;6.22;;
68310;SDS011;55157;51.036;17.058;2023-05-19T04:50:03;8.93;;;5.68;;
68310;SDS011;55157;51.036;17.058;2023-05-19T04:52:28;11.07;;;5.60;;
68310;SDS011;55157;51.036;17.058;2023-05-19T04:54:55;11.10;;;5.15;;
68310;SDS011;55157;51.036;17.058;2023-05-19T04:57:20;8.32;;;4.75;;
68310;SDS011;55157;51.036;17.058;2023-05-19T04:59:45;14.00;;;4.72;;
68310;SDS011;55157;51.036;17.058;2023-05-19T05:02:11;11.95;;;5.00;;
68310;SDS011;55157;51.036;17.058;2023-05-19T05:04:36;13.25;;;5.00;;
68310;SDS011;55157;51.036;17.058;2023-05-19T05:07:01;13.90;;;5.40;;
68310;SDS011;55157;51.036;17.058;2023-05-19T05:09:26;14.30;;;6.00;;
68310;SDS011;55157;51.036;17.058;2023-05-19T05:11:53;11.15;;;5.35;;
68310;SDS011;55157;51.036;17.058;2023-05-19T05:14:19;9.60;;;5.72;;
68310;SDS011;55157;51.036;17.058;2023-05-19T05:16:44;9.30;;;4.80;;
68310;SDS011;55157;51.036;17.058;2023-05-19T05:19:10;10.82;;;4.78;;
68310;SDS011;55157;51.036;17.058;2023-05-19T05:21:36;18.75;;;5.00;;
68310;SDS011;55157;51.036;17.058;2023-05-19T05:24:01;7.60;;;4.40;;
68310;SDS011;55157;51.036;17.058;2023-05-19T05:26:27;7.90;;;4.60;;
68310;SDS011;55157;51.036;17.058;2023-05-19T05:28:55;20.98;;;4.90;;
68310;SDS011;55157;51.036;17.058;2023-05-19T05:31:20;9.82;;;4.78;;
68310;SDS011;55157;51.036;17.058;2023-05-19T05:33:45;8.52;;;4.93;;
68310;SDS011;55157;51.036;17.058;2023-05-19T05:36:11;9.98;;;4.95;;
68310;SDS011;55157;51.036;17.058;2023-05-19T05:38:36;8.57;;;4.22;;
68310;SDS011;55157;51.036;17.058;2023-05-19T05:41:01;10.85;;;4.78;;
68310;SDS011;55157;51.036;17.058;2023-05-19T05:43:26;7.10;;;4.45;;
68310;SDS011;55157;51.036;17.058;2023-05-19T05:45:53;13.93;;;4.43;;
68310;SDS011;55157;51.036;17.058;2023-05-19T05:48:19;9.35;;;4.40;;
68310;SDS011;55157;51.036;17.058;2023-05-19T05:50:44;10.63;;;4.80;;
68310;SDS011;55157;51.036;17.058;2023-05-19T05:53:10;8.68;;;4.57;;
68310;SDS011;55157;51.036;17.058;2023-05-19T05:55:37;10.13;;;4.45;;
68310;SDS011;55157;51.036;17.058;2023-05-19T05:58:02;9.50;;;4.53;;
68310;SDS011;55157;51.036;17.058;2023-05-19T06:00:28;14.80;;;4.10;;
68310;SDS011;55157;51.036;17.058;2023-05-19T06:02:54;7.78;;;4.43;;
68310;SDS011;55157;51.036;17.058;2023-05-19T06:05:19;7.15;;;3.92;;
68310;SDS011;55157;51.036;17.058;2023-05-19T06:07:45;10.48;;;4.55;;
68310;SDS011;55157;51.036;17.058;2023-05-19T06:10:10;7.50;;;4.05;;
68310;SDS011;55157;51.036;17.058;2023-05-19T06:12:35;10.07;;;4.60;;
68310;SDS011;55157;51.036;17.058;2023-05-19T06:15:01;11.57;;;4.20;;
68310;SDS011;55157;51.036;17.058;2023-05-19T06:17:26;7.25;;;4.32;;
68310;SDS011;55157;51.036;17.058;2023-05-19T06:19:53;7.53;;;4.72;;
68310;SDS011;55157;51.036;17.058;2023-05-19T06:22:18;13.18;;;4.65;;
68310;SDS011;55157;51.036;17.058;2023-05-19T06:24:43;10.45;;;5.47;;
68310;SDS011;55157;51.036;17.058;2023-05-19T06:27:09;7.45;;;4.43;;
68310;SDS011;55157;51.036;17.058;2023-05-19T06:29:34;6.70;;;4.90;;
68310;SDS011;55157;51.036;17.058;2023-05-19T06:32:01;17.67;;;5.00;;
68310;SDS011;55157;51.036;17.058;2023-05-19T06:34:26;8.07;;;4.40;;
68310;SDS011;55157;51.036;17.058;2023-05-19T06:36:53;9.20;;;4.95;;
68310;SDS011;55157;51.036;17.058;2023-05-19T06:39:18;11.27;;;5.00;;
68310;SDS011;55157;51.036;17.058;2023-05-19T06:41:43;10.75;;;4.78;;
68310;SDS011;55157;51.036;17.058;2023-05-19T06:44:08;8.32;;;5.07;;
68310;SDS011;55157;51.036;17.058;2023-05-19T06:46:34;9.85;;;5.20;;
68310;SDS011;55157;51.036;17.058;2023-05-19T06:48:59;8.32;;;5.45;;
68310;SDS011;55157;51.036;17.058;2023-05-19T06:51:24;11.25;;;5.80;;
68310;SDS011;55157;51.036;17.058;2023-05-19T06:53:51;8.82;;;4.82;;
68310;SDS011;55157;51.036;17.058;2023-05-19T06:56:16;10.55;;;5.07;;
68310;SDS011;55157;51.036;17.058;2023-05-19T06:58:42;12.63;;;6.40;;
68310;SDS011;55157;51.036;17.058;2023-05-19T07:01:07;10.52;;;4.90;;
68310;SDS011;55157;51.036;17.058;2023-05-19T07:03:32;12.93;;;4.72;;
68310;SDS011;55157;51.036;17.058;2023-05-19T07:05:58;6.75;;;4.25;;
68310;SDS011;55157;51.036;17.058;2023-05-19T07:08:23;11.63;;;4.93;;
68310;SDS011;55157;51.036;17.058;2023-05-19T07:10:50;11.52;;;5.25;;
68310;SDS011;55157;51.036;17.058;2023-05-19T07:13:15;9.75;;;4.35;;
68310;SDS011;55157;51.036;17.058;2023-05-19T07:15:40;8.57;;;4.55;;
68310;SDS011;55157;51.036;17.058;2023-05-19T07:18:05;9.07;;;4.53;;
68310;SDS011;55157;51.036;17.058;2023-05-19T07:20:31;12.75;;;4.53;;
68310;SDS011;55157;51.036;17.058;2023-05-19T07:22:56;7.22;;;4.20;;
68310;SDS011;55157;51.036;17.058;2023-05-19T07:25:21;9.00;;;3.95;;
68310;SDS011;55157;51.036;17.058;2023-05-19T07:27:52;11.05;;;4.05;;
68310;SDS011;55157;51.036;17.058;2023-05-19T07:30:17;10.20;;;3.95;;
68310;SDS011;55157;51.036;17.058;2023-05-19T07:32:44;12.88;;;4.45;;
68310;SDS011;55157;51.036;17.058;2023-05-19T07:35:09;7.78;;;4.15;;
68310;SDS011;55157;51.036;17.058;2023-05-19T07:37:34;7.38;;;3.55;;
68310;SDS011;55157;51.036;17.058;2023-05-19T07:40:00;6.65;;;4.15;;
68310;SDS011;55157;51.036;17.058;2023-05-19T07:42:25;9.52;;;4.45;;
68310;SDS011;55157;51.036;17.058;2023-05-19T07:44:52;9.90;;;4.55;;
68310;SDS011;55157;51.036;17.058;2023-05-19T07:47:17;14.18;;;5.68;;
68310;SDS011;55157;51.036;17.058;2023-05-19T07:49:42;10.52;;;5.68;;
68310;SDS011;55157;51.036;17.058;2023-05-19T07:52:08;8.90;;;5.15;;
68310;SDS011;55157;51.036;17.058;2023-05-19T07:54:33;10.57;;;4.32;;
68310;SDS011;55157;51.036;17.058;2023-05-19T07:56:59;10.68;;;4.22;;
68310;SDS011;55157;51.036;17.058;2023-05-19T07:59:24;10.13;;;4.05;;
68310;SDS011;55157;51.036;17.058;2023-05-19T08:04:31;8.95;;;3.38;;
68310;SDS011;55157;51.036;17.058;2023-05-19T08:06:56;10.82;;;3.60;;
68310;SDS011;55157;51.036;17.058;2023-05-19T08:09:22;7.47;;;3.63;;
68310;SDS011;55157;51.036;17.058;2023-05-19T08:11:47;8.40;;;3.65;;
68310;SDS011;55157;51.036;17.058;2023-05-19T08:14:12;8.85;;;3.92;;
68310;SDS011;55157;51.036;17.058;2023-05-19T08:16:37;5.95;;;3.08;;
68310;SDS011;55157;51.036;17.058;2023-05-19T08:19:03;5.55;;;3.25;;
68310;SDS011;55157;51.036;17.058;2023-05-19T08:21:30;7.93;;;3.58;;
68310;SDS011;55157;51.036;17.058;2023-05-19T08:23:55;9.95;;;2.97;;
68310;SDS011;55157;51.036;17.058;2023-05-19T08:26:20;6.30;;;3.10;;
68310;SDS011;55157;51.036;17.058;2023-05-19T08:28:46;7.55;;;3.28;;
68310;SDS011;55157;51.036;17.058;2023-05-19T08:31:11;12.48;;;3.92;;
68310;SDS011;55157;51.036;17.058;2023-05-19T08:33:36;10.25;;;3.88;;
68310;SDS011;55157;51.036;17.058;2023-05-19T08:36:01;11.07;;;3.22;;
68310;SDS011;55157;51.036;17.058;2023-05-19T08:38:32;7.55;;;2.88;;
68310;SDS011;55157;51.036;17.058;2023-05-19T08:40:57;9.38;;;2.50;;
68310;SDS011;55157;51.036;17.058;2023-05-19T08:43:22;9.45;;;2.25;;
68310;SDS011;55157;51.036;17.058;2023-05-19T08:45:48;4.93;;;2.35;;
68310;SDS011;55157;51.036;17.058;2023-05-19T08:48:13;9.48;;;2.38;;
68310;SDS011;55157;51.036;17.058;2023-05-19T08:50:40;16.10;;;2.80;;
68310;SDS011;55157;51.036;17.058;2023-05-19T08:53:11;5.78;;;1.90;;
68310;SDS011;55157;51.036;17.058;2023-05-19T08:55:40;4.03;;;2.05;;
68310;SDS011;55157;51.036;17.058;2023-05-19T08:58:06;11.23;;;2.53;;
68310;SDS011;55157;51.036;17.058;2023-05-19T09:00:32;4.80;;;2.55;;
68310;SDS011;55157;51.036;17.058;2023-05-19T09:02:57;6.90;;;2.47;;
68310;SDS011;55157;51.036;17.058;2023-05-19T09:05:23;7.85;;;2.15;;
68310;SDS011;55157;51.036;17.058;2023-05-19T09:07:48;4.97;;;2.53;;
68310;SDS011;55157;51.036;17.058;2023-05-19T09:10:13;5.05;;;2.30;;
68310;SDS011;55157;51.036;17.058;2023-05-19T09:12:42;13.50;;;3.20;;
68310;SDS011;55157;51.036;17.058;2023-05-19T09:15:07;5.95;;;2.67;;
68310;SDS011;55157;51.036;17.058;2023-05-19T09:17:33;7.03;;;2.95;;
68310;SDS011;55157;51.036;17.058;2023-05-19T09:20:00;6.80;;;3.20;;
68310;SDS011;55157;51.036;17.058;2023-05-19T09:22:25;4.38;;;2.58;;
68310;SDS011;55157;51.036;17.058;2023-05-19T09:24:50;6.07;;;2.90;;
68310;SDS011;55157;51.036;17.058;2023-05-19T09:27:20;10.60;;;3.15;;
68310;SDS011;55157;51.036;17.058;2023-05-19T09:29:47;8.15;;;3.20;;
68310;SDS011;55157;51.036;17.058;2023-05-19T09:32:12;6.95;;;2.92;;
68310;SDS011;55157;51.036;17.058;2023-05-19T09:34:47;6.60;;;2.83;;
68310;SDS011;55157;51.036;17.058;2023-05-19T09:37:13;5.43;;;2.95;;
68310;SDS011;55157;51.036;17.058;2023-05-19T09:39:38;3.83;;;2.60;;
68310;SDS011;55157;51.036;17.058;2023-05-19T09:42:04;5.75;;;3.72;;
68310;SDS011;55157;51.036;17.058;2023-05-19T09:44:30;8.93;;;4.95;;
68310;SDS011;55157;51.036;17.058;2023-05-19T09:46:57;9.25;;;3.90;;
68310;SDS011;55157;51.036;17.058;2023-05-19T09:49:23;10.25;;;4.43;;
68310;SDS011;55157;51.036;17.058;2023-05-19T09:51:49;10.10;;;4.32;;
68310;SDS011;55157;51.036;17.058;2023-05-19T09:54:14;7.60;;;3.88;;
68310;SDS011;55157;51.036;17.058;2023-05-19T09:56:41;11.77;;;6.65;;
68310;SDS011;55157;51.036;17.058;2023-05-19T09:59:06;10.80;;;4.28;;
68310;SDS011;55157;51.036;17.058;2023-05-19T10:01:32;8.30;;;3.90;;
68310;SDS011;55157;51.036;17.058;2023-05-19T10:03:59;8.38;;;4.53;;
68310;SDS011;55157;51.036;17.058;2023-05-19T10:06:25;9.27;;;4.95;;
68310;SDS011;55157;51.036;17.058;2023-05-19T10:08:50;8.43;;;4.82;;
68310;SDS011;55157;51.036;17.058;2023-05-19T10:11:16;7.43;;;4.03;;
68310;SDS011;55157;51.036;17.058;2023-05-19T10:13:42;10.63;;;5.15;;
68310;SDS011;55157;51.036;17.058;2023-05-19T10:16:09;8.18;;;3.70;;
68310;SDS011;55157;51.036;17.058;2023-05-19T10:18:35;6.10;;;3.78;;
68310;SDS011;55157;51.036;17.058;2023-05-19T10:21:02;6.47;;;4.60;;
68310;SDS011;55157;51.036;17.058;2023-05-19T10:23:28;11.32;;;5.07;;
68310;SDS011;55157;51.036;17.058;2023-05-19T10:25:54;8.00;;;4.93;;
68310;SDS011;55157;51.036;17.058;2023-05-19T10:28:20;7.82;;;4.75;;
68310;SDS011;55157;51.036;17.058;2023-05-19T10:30:47;11.57;;;5.15;;
68310;SDS011;55157;51.036;17.058;2023-05-19T10:33:14;9.93;;;5.40;;
68310;SDS011;55157;51.036;17.058;2023-05-19T10:35:52;14.95;;;5.97;;
68310;SDS011;55157;51.036;17.058;2023-05-19T10:38:32;13.40;;;5.45;;
68310;SDS011;55157;51.036;17.058;2023-05-19T10:41:04;10.18;;;6.00;;
68310;SDS011;55157;51.036;17.058;2023-05-19T10:43:36;9.82;;;5.45;;
68310;SDS011;55157;51.036;17.058;2023-05-19T10:46:02;12.38;;;6.78;;
68310;SDS011;55157;51.036;17.058;2023-05-19T10:48:28;13.13;;;6.50;;
68310;SDS011;55157;51.036;17.058;2023-05-19T10:50:56;12.05;;;6.57;;
68310;SDS011;55157;51.036;17.058;2023-05-19T10:53:28;13.52;;;6.72;;
68310;SDS011;55157;51.036;17.058;2023-05-19T10:55:55;12.43;;;6.63;;
68310;SDS011;55157;51.036;17.058;2023-05-19T10:58:37;12.35;;;7.22;;
68310;SDS011;55157;51.036;17.058;2023-05-19T11:01:05;16.80;;;8.05;;
68310;SDS011;55157;51.036;17.058;2023-05-19T11:03:35;14.75;;;7.93;;
68310;SDS011;55157;51.036;17.058;2023-05-19T11:06:16;13.82;;;7.28;;
68310;SDS011;55157;51.036;17.058;2023-05-19T11:08:41;12.63;;;6.95;;
68310;SDS011;55157;51.036;17.058;2023-05-19T11:11:14;14.65;;;7.75;;
68310;SDS011;55157;51.036;17.058;2023-05-19T11:16:07;14.25;;;7.78;;
68310;SDS011;55157;51.036;17.058;2023-05-19T11:18:32;11.80;;;6.20;;
68310;SDS011;55157;51.036;17.058;2023-05-19T11:20:59;16.83;;;5.63;;
68310;SDS011;55157;51.036;17.058;2023-05-19T11:23:24;13.70;;;5.75;;
68310;SDS011;55157;51.036;17.058;2023-05-19T11:25:50;10.93;;;4.75;;
68310;SDS011;55157;51.036;17.058;2023-05-19T11:28:18;10.48;;;5.65;;
68310;SDS011;55157;51.036;17.058;2023-05-19T11:30:44;10.02;;;5.47;;
68310;SDS011;55157;51.036;17.058;2023-05-19T11:33:09;9.13;;;5.60;;
68310;SDS011;55157;51.036;17.058;2023-05-19T11:35:35;11.30;;;5.55;;
68310;SDS011;55157;51.036;17.058;2023-05-19T11:38:00;11.30;;;6.78;;
68310;SDS011;55157;51.036;17.058;2023-05-19T11:40:25;14.32;;;6.82;;
68310;SDS011;55157;51.036;17.058;2023-05-19T11:42:51;11.85;;;7.00;;
68310;SDS011;55157;51.036;17.058;2023-05-19T11:45:22;19.10;;;7.85;;
68310;SDS011;55157;51.036;17.058;2023-05-19T11:47:48;13.30;;;7.43;;
68310;SDS011;55157;51.036;17.058;2023-05-19T11:50:13;14.05;;;7.28;;
68310;SDS011;55157;51.036;17.058;2023-05-19T11:52:38;11.98;;;7.18;;
68310;SDS011;55157;51.036;17.058;2023-05-19T11:55:08;14.63;;;6.88;;
68310;SDS011;55157;51.036;17.058;2023-05-19T11:57:33;12.50;;;5.72;;
68310;SDS011;55157;51.036;17.058;2023-05-19T12:00:00;15.13;;;6.40;;
68310;SDS011;55157;51.036;17.058;2023-05-19T12:02:29;8.95;;;5.45;;
68310;SDS011;55157;51.036;17.058;2023-05-19T12:04:55;13.88;;;5.90;;
68310;SDS011;55157;51.036;17.058;2023-05-19T12:07:21;10.68;;;5.82;;
68310;SDS011;55157;51.036;17.058;2023-05-19T12:09:47;11.82;;;6.18;;
68310;SDS011;55157;51.036;17.058;2023-05-19T12:12:13;14.40;;;5.93;;
68310;SDS011;55157;51.036;17.058;2023-05-19T12:14:38;15.55;;;5.78;;
68310;SDS011;55157;51.036;17.058;2023-05-19T12:17:10;10.55;;;6.38;;
68310;SDS011;55157;51.036;17.058;2023-05-19T12:19:37;10.95;;;5.40;;
68310;SDS011;55157;51.036;17.058;2023-05-19T12:22:02;9.85;;;7.03;;
68310;SDS011;55157;51.036;17.058;2023-05-19T12:24:29;19.65;;;7.45;;
68310;SDS011;55157;51.036;17.058;2023-05-19T12:27:03;10.00;;;7.43;;
68310;SDS011;55157;51.036;17.058;2023-05-19T12:29:28;11.55;;;7.35;;
68310;SDS011;55157;51.036;17.058;2023-05-19T12:31:55;19.02;;;8.52;;
68310;SDS011;55157;51.036;17.058;2023-05-19T12:34:20;10.38;;;7.68;;
68310;SDS011;55157;51.036;17.058;2023-05-19T12:36:47;9.70;;;7.80;;
68310;SDS011;55157;51.036;17.058;2023-05-19T12:39:12;9.70;;;7.68;;
68310;SDS011;55157;51.036;17.058;2023-05-19T12:41:38;11.32;;;7.50;;
68310;SDS011;55157;51.036;17.058;2023-05-19T12:44:11;12.35;;;8.73;;
68310;SDS011;55157;51.036;17.058;2023-05-19T12:46:38;16.38;;;8.75;;
68310;SDS011;55157;51.036;17.058;2023-05-19T12:49:04;10.98;;;8.60;;
68310;SDS011;55157;51.036;17.058;2023-05-19T12:51:29;16.38;;;9.35;;
68310;SDS011;55157;51.036;17.058;2023-05-19T12:53:56;12.18;;;9.15;;
68310;SDS011;55157;51.036;17.058;2023-05-19T12:56:24;16.95;;;9.98;;
68310;SDS011;55157;51.036;17.058;2023-05-19T12:58:51;15.40;;;10.90;;
68310;SDS011;55157;51.036;17.058;2023-05-19T13:01:17;14.95;;;10.63;;
68310;SDS011;55157;51.036;17.058;2023-05-19T13:03:42;14.70;;;10.65;;
68310;SDS011;55157;51.036;17.058;2023-05-19T13:06:08;13.15;;;9.20;;
68310;SDS011;55157;51.036;17.058;2023-05-19T13:08:33;16.70;;;10.70;;
68310;SDS011;55157;51.036;17.058;2023-05-19T13:11:00;25.70;;;10.65;;
68310;SDS011;55157;51.036;17.058;2023-05-19T13:13:25;15.43;;;10.90;;
68310;SDS011;55157;51.036;17.058;2023-05-19T13:15:51;22.77;;;11.40;;
68310;SDS011;55157;51.036;17.058;2023-05-19T13:18:16;19.05;;;11.00;;
68310;SDS011;55157;51.036;17.058;2023-05-19T13:20:42;18.70;;;11.05;;
68310;SDS011;55157;51.036;17.058;2023-05-19T13:23:08;17.13;;;10.88;;
68310;SDS011;55157;51.036;17.058;2023-05-19T13:25:34;17.40;;;12.43;;
68310;SDS011;55157;51.036;17.058;2023-05-19T13:28:01;16.83;;;11.95;;
68310;SDS011;55157;51.036;17.058;2023-05-19T13:30:26;17.50;;;11.65;;
68310;SDS011;55157;51.036;17.058;2023-05-19T13:32:51;17.90;;;11.45;;
68310;SDS011;55157;51.036;17.058;2023-05-19T13:35:16;18.40;;;11.93;;
68310;SDS011;55157;51.036;17.058;2023-05-19T13:37:42;20.42;;;12.25;;
68310;SDS011;55157;51.036;17.058;2023-05-19T13:40:08;16.80;;;10.65;;
68310;SDS011;55157;51.036;17.058;2023-05-19T13:42:33;15.98;;;11.85;;
68310;SDS011;55157;51.036;17.058;2023-05-19T13:45:00;20.02;;;11.55;;
68310;SDS011;55157;51.036;17.058;2023-05-19T13:47:25;25.70;;;12.32;;
68310;SDS011;55157;51.036;17.058;2023-05-19T13:49:51;18.52;;;11.57;;
68310;SDS011;55157;51.036;17.058;2023-05-19T13:52:16;16.63;;;11.38;;
68310;SDS011;55157;51.036;17.058;2023-05-19T13:54:41;19.13;;;10.82;;
68310;SDS011;55157;51.036;17.058;2023-05-19T13:57:07;18.35;;;11.55;;
68310;SDS011;55157;51.036;17.058;2023-05-19T13:59:32;23.42;;;10.85;;
68310;SDS011;55157;51.036;17.058;2023-05-19T14:01:59;15.05;;;12.45;;
68310;SDS011;55157;51.036;17.058;2023-05-19T14:04:24;19.35;;;13.00;;
68310;SDS011;55157;51.036;17.058;2023-05-19T14:06:49;18.65;;;13.27;;
68310;SDS011;55157;51.036;17.058;2023-05-19T14:09:14;16.15;;;11.80;;
68310;SDS011;55157;51.036;17.058;2023-05-19T14:11:40;20.95;;;13.30;;
68310;SDS011;55157;51.036;17.058;2023-05-19T14:14:05;20.98;;;12.68;;
68310;SDS011;55157;51.036;17.058;2023-05-19T14:16:31;20.88;;;12.07;;
68310;SDS011;55157;51.036;17.058;2023-05-19T14:19:00;16.75;;;11.93;;
68310;SDS011;55157;51.036;17.058;2023-05-19T14:21:25;19.30;;;12.20;;
68310;SDS011;55157;51.036;17.058;2023-05-19T14:23:50;22.17;;;14.98;;
68310;SDS011;55157;51.036;17.058;2023-05-19T14:26:16;19.00;;;13.55;;